createdAt,value
2019-03-23T00:02:25.626Z,28.17
2019-03-23T00:04:54.874Z,28.80
2019-03-23T00:07:31.145Z,27.75
2019-03-23T00:10:00.388Z,27.22
2019-03-23T00:12:29.762Z,27.85
2019-03-23T00:15:06.137Z,29.67
2019-03-23T00:17:35.371Z,30.15
2019-03-23T00:20:05.620Z,27.58
2019-03-23T00:22:41.873Z,30.50
2019-03-23T00:25:11.121Z,28.02
2019-03-23T00:27:52.757Z,31.75
2019-03-23T00:30:22.072Z,28.77
2019-03-23T00:32:51.352Z,28.83
2019-03-23T00:35:27.189Z,29.02
2019-03-23T00:37:56.450Z,28.23
2019-03-23T00:40:39.474Z,29.02
2019-03-23T00:43:08.752Z,28.23
2019-03-23T00:45:50.541Z,31.33
2019-03-23T00:48:26.500Z,29.90
2019-03-23T00:51:02.630Z,28.17
2019-03-23T00:53:31.915Z,28.20
2019-03-23T00:56:01.177Z,28.40
2019-03-23T00:58:36.644Z,28.20
2019-03-23T01:01:06.004Z,25.68
2019-03-23T01:03:35.255Z,28.52
2019-03-23T01:06:11.231Z,27.25
2019-03-23T01:08:40.581Z,26.85
2019-03-23T01:11:09.873Z,26.05
2019-03-23T01:13:46.110Z,26.40
2019-03-23T01:16:15.343Z,26.52
2019-03-23T01:18:44.657Z,31.75
2019-03-23T01:21:20.713Z,28.27
2019-03-23T01:23:49.981Z,30.37
2019-03-23T01:26:19.273Z,28.15
2019-03-23T01:28:55.400Z,28.00
2019-03-23T01:31:24.625Z,27.07
2019-03-23T01:33:53.902Z,28.90
2019-03-23T01:36:29.301Z,27.62
2019-03-23T01:38:58.587Z,29.95
2019-03-23T01:41:40.504Z,26.70
2019-03-23T01:44:09.768Z,27.37
2019-03-23T01:46:52.463Z,26.93
2019-03-23T01:49:28.607Z,24.63
2019-03-23T01:52:05.521Z,23.32
2019-03-23T01:54:34.809Z,22.67
2019-03-23T01:57:04.117Z,24.87
2019-03-23T01:59:40.200Z,22.37
2019-03-23T02:02:09.441Z,20.75
2019-03-23T02:04:38.691Z,21.23
2019-03-23T02:07:14.432Z,19.63
2019-03-23T02:09:43.697Z,19.73
2019-03-23T02:12:13.072Z,19.07
2019-03-23T02:14:48.408Z,18.35
2019-03-23T02:17:17.740Z,17.65
2019-03-23T02:19:47.042Z,19.32
2019-03-23T02:22:23.207Z,21.10
2019-03-23T02:24:52.458Z,18.42
2019-03-23T02:27:21.731Z,18.70
2019-03-23T02:29:57.567Z,19.53
2019-03-23T02:32:26.798Z,20.43
2019-03-23T02:34:56.917Z,18.85
2019-03-23T02:37:32.520Z,20.90
2019-03-23T02:40:01.732Z,19.52
2019-03-23T02:42:44.730Z,18.90
2019-03-23T02:45:14.251Z,18.73
2019-03-23T02:47:56.679Z,21.00
2019-03-23T02:50:32.933Z,21.45
2019-03-23T02:53:08.518Z,21.10
2019-03-23T02:55:37.777Z,20.77
2019-03-23T02:58:07.008Z,20.43
2019-03-23T03:00:43.306Z,19.65
2019-03-23T03:03:12.568Z,20.15
2019-03-23T03:05:41.786Z,20.30
2019-03-23T03:08:17.640Z,17.57
2019-03-23T03:10:46.901Z,17.32
2019-03-23T03:13:16.146Z,18.98
2019-03-23T03:15:52.033Z,19.93
2019-03-23T03:18:21.304Z,18.83
2019-03-23T03:20:50.662Z,18.77
2019-03-23T03:23:26.367Z,17.32
2019-03-23T03:25:55.696Z,19.15
2019-03-23T03:28:24.969Z,19.97
2019-03-23T03:31:00.723Z,19.57
2019-03-23T03:33:29.932Z,18.32
2019-03-23T03:35:59.209Z,18.90
2019-03-23T03:38:35.321Z,19.07
2019-03-23T03:41:04.600Z,20.12
2019-03-23T03:43:46.735Z,18.50
2019-03-23T03:46:15.979Z,17.52
2019-03-23T03:49:11.784Z,19.37
2019-03-23T03:51:36.399Z,16.93
2019-03-23T03:54:12.452Z,18.12
2019-03-23T03:56:41.669Z,19.07
2019-03-23T03:59:10.883Z,17.75
2019-03-23T04:01:46.657Z,19.62
2019-03-23T04:04:15.898Z,18.75
2019-03-23T04:06:45.145Z,18.57
2019-03-23T04:09:21.281Z,20.05
2019-03-23T04:11:50.563Z,18.87
2019-03-23T04:14:19.890Z,18.92
2019-03-23T04:16:55.350Z,18.20
2019-03-23T04:19:24.639Z,16.80
2019-03-23T04:21:53.873Z,19.45
2019-03-23T04:24:30.694Z,17.70
2019-03-23T04:26:59.997Z,18.42
2019-03-23T04:29:29.351Z,18.35
2019-03-23T04:32:05.767Z,18.40
2019-03-23T04:34:35.003Z,18.37
2019-03-23T04:37:04.337Z,16.55
2019-03-23T04:39:40.017Z,16.80
2019-03-23T04:42:09.309Z,18.40
2019-03-23T04:44:52.508Z,18.10
2019-03-23T04:47:21.806Z,18.65
2019-03-23T04:50:04.030Z,17.70
2019-03-23T04:52:39.876Z,19.37
2019-03-23T04:55:17.889Z,18.35
2019-03-23T04:57:47.149Z,17.48
2019-03-23T05:00:16.914Z,18.65
2019-03-23T05:02:53.147Z,17.70
2019-03-23T05:05:22.374Z,17.12
2019-03-23T05:07:51.678Z,18.12
2019-03-23T05:10:27.903Z,16.77
2019-03-23T05:12:57.153Z,17.52
2019-03-23T05:15:26.395Z,17.40
2019-03-23T05:18:01.773Z,18.45
2019-03-23T05:20:31.992Z,18.57
2019-03-23T05:23:01.354Z,16.40
2019-03-23T05:25:36.851Z,18.03
2019-03-23T05:28:06.120Z,16.77
2019-03-23T05:30:35.338Z,16.30
2019-03-23T05:33:11.121Z,17.02
2019-03-23T05:35:40.396Z,17.40
2019-03-23T05:38:09.641Z,16.17
2019-03-23T05:40:45.813Z,16.62
2019-03-23T05:43:15.043Z,18.52
2019-03-23T05:45:57.252Z,17.52
2019-03-23T05:48:32.696Z,16.07
2019-03-23T05:51:14.792Z,15.43
2019-03-23T05:53:44.296Z,15.40
2019-03-23T05:56:13.515Z,17.12
2019-03-23T05:58:49.329Z,17.23
2019-03-23T06:01:18.674Z,15.53
2019-03-23T06:03:47.902Z,15.70
2019-03-23T06:06:24.068Z,15.85
2019-03-23T06:08:55.388Z,17.02
2019-03-23T06:11:24.403Z,15.85
2019-03-23T06:13:59.868Z,15.03
2019-03-23T06:16:29.145Z,15.58
2019-03-23T06:18:59.235Z,15.93
2019-03-23T06:21:34.580Z,15.90
2019-03-23T06:24:03.919Z,16.27
2019-03-23T06:26:33.191Z,15.73
2019-03-23T06:29:08.692Z,17.07
2019-03-23T06:31:37.945Z,16.33
2019-03-23T06:34:07.221Z,15.43
2019-03-23T06:36:43.279Z,17.17
2019-03-23T06:39:12.563Z,18.67
2019-03-23T06:41:41.928Z,17.57
2019-03-23T06:44:18.471Z,17.07
2019-03-23T06:46:54.127Z,17.37
2019-03-23T06:49:38.384Z,19.55
2019-03-23T06:52:14.315Z,17.23
2019-03-23T06:54:50.448Z,17.67
2019-03-23T06:57:19.705Z,17.23
2019-03-23T06:59:49.009Z,18.20
2019-03-23T07:02:25.246Z,19.25
2019-03-23T07:04:54.519Z,19.32
2019-03-23T07:07:24.914Z,20.32
2019-03-23T07:10:03.699Z,18.07
2019-03-23T07:12:32.989Z,18.90
2019-03-23T07:15:02.256Z,19.23
2019-03-23T07:17:41.101Z,18.87
2019-03-23T07:20:11.188Z,17.23
2019-03-23T07:22:41.773Z,19.10
2019-03-23T07:25:23.013Z,18.42
2019-03-23T07:27:52.202Z,18.20
2019-03-23T07:30:21.596Z,17.95
2019-03-23T07:32:57.718Z,18.05
2019-03-23T07:35:26.928Z,17.55
2019-03-23T07:37:56.172Z,17.60
2019-03-23T07:40:33.316Z,18.40
2019-03-23T07:43:02.577Z,18.00
2019-03-23T07:45:32.055Z,18.55
2019-03-23T07:48:14.531Z,19.00
2019-03-23T07:50:50.505Z,18.45
2019-03-23T07:53:38.937Z,18.55
2019-03-23T07:56:08.213Z,17.85
2019-03-23T07:58:37.601Z,19.00
2019-03-23T08:01:14.077Z,20.10
2019-03-23T08:03:43.408Z,19.75
2019-03-23T08:06:12.676Z,19.20
2019-03-23T08:08:48.067Z,20.32
2019-03-23T08:11:17.384Z,19.23
2019-03-23T08:13:46.729Z,20.40
2019-03-23T08:16:22.395Z,19.92
2019-03-23T08:18:51.627Z,21.68
2019-03-23T08:21:20.889Z,21.68
2019-03-23T08:23:56.371Z,23.35
2019-03-23T08:26:25.559Z,21.80
2019-03-23T08:28:54.799Z,22.25
2019-03-23T08:31:30.493Z,21.40
2019-03-23T08:33:59.715Z,22.97
2019-03-23T08:36:28.952Z,21.25
2019-03-23T08:39:05.181Z,22.95
2019-03-23T08:41:34.435Z,22.60
2019-03-23T08:44:03.684Z,22.32
2019-03-23T08:46:40.264Z,21.35
2019-03-23T08:49:16.212Z,21.50
2019-03-23T08:51:58.399Z,20.03
2019-03-23T08:54:34.527Z,20.47
2019-03-23T08:57:10.681Z,21.80
2019-03-23T08:59:39.888Z,20.47
2019-03-23T09:02:09.087Z,21.40
2019-03-23T09:04:45.134Z,21.50
2019-03-23T09:07:14.375Z,19.25
2019-03-23T09:09:43.584Z,22.75
2019-03-23T09:12:19.770Z,19.57
2019-03-23T09:14:49.043Z,17.75
2019-03-23T09:17:18.265Z,20.50
2019-03-23T09:19:54.319Z,19.05
2019-03-23T09:22:23.591Z,20.08
2019-03-23T09:24:57.026Z,18.23
2019-03-23T09:30:02.865Z,18.70
2019-03-23T09:32:32.449Z,19.20
2019-03-23T09:35:08.728Z,20.25
2019-03-23T09:37:38.450Z,16.93
2019-03-23T09:40:11.109Z,17.17
2019-03-23T09:42:45.579Z,18.57
2019-03-23T09:45:15.543Z,16.25
2019-03-23T09:47:44.810Z,17.95
2019-03-23T09:50:27.633Z,17.77
2019-03-23T09:53:03.006Z,17.90
2019-03-23T09:55:39.020Z,19.32
2019-03-23T09:58:08.265Z,17.60
2019-03-23T10:00:37.518Z,17.32
2019-03-23T10:03:13.802Z,17.67
2019-03-23T10:05:43.079Z,16.85
2019-03-23T10:08:12.351Z,18.40
2019-03-23T10:10:47.810Z,16.73
2019-03-23T10:13:17.079Z,16.02
2019-03-23T10:15:46.350Z,16.50
2019-03-23T10:18:22.484Z,16.62
2019-03-23T10:20:51.700Z,15.88
2019-03-23T10:23:20.948Z,16.50
2019-03-23T10:25:57.161Z,16.27
2019-03-23T10:28:26.436Z,16.17
2019-03-23T10:30:55.735Z,16.95
2019-03-23T10:33:31.179Z,14.85
2019-03-23T10:36:00.460Z,14.83
2019-03-23T10:38:29.687Z,16.77
2019-03-23T10:41:05.193Z,15.72
2019-03-23T10:43:34.411Z,13.38
2019-03-23T10:46:03.656Z,14.83
2019-03-23T10:48:39.781Z,16.03
2019-03-23T10:51:28.377Z,14.50
2019-03-23T10:54:04.159Z,13.95
2019-03-23T10:56:33.484Z,14.15
2019-03-23T10:59:02.787Z,12.70
2019-03-23T11:01:38.365Z,14.87
2019-03-23T11:04:07.563Z,14.38
2019-03-23T11:06:36.767Z,14.23
2019-03-23T11:09:20.376Z,13.30
2019-03-23T11:11:49.593Z,16.30
2019-03-23T11:14:18.798Z,15.30
2019-03-23T11:16:54.788Z,15.28
2019-03-23T11:19:23.994Z,15.23
2019-03-23T11:21:53.361Z,17.97
2019-03-23T11:24:29.716Z,15.78
2019-03-23T11:26:58.912Z,17.48
2019-03-23T11:29:28.235Z,16.90
2019-03-23T11:32:03.936Z,16.70
2019-03-23T11:34:33.174Z,17.77
2019-03-23T11:37:02.425Z,16.82
2019-03-23T11:39:37.737Z,17.05
2019-03-23T11:42:08.526Z,17.77
2019-03-23T11:44:40.328Z,16.67
2019-03-23T11:47:16.722Z,17.50
2019-03-23T11:49:46.165Z,16.95
2019-03-23T11:52:34.344Z,17.35
2019-03-23T11:55:06.995Z,15.70
2019-03-23T11:57:43.475Z,14.95
2019-03-23T12:00:13.958Z,15.65
2019-03-23T12:02:43.260Z,14.63
2019-03-23T12:05:18.939Z,16.82
2019-03-23T12:07:48.188Z,14.93
2019-03-23T12:10:17.507Z,17.70
2019-03-23T12:12:53.534Z,15.10
2019-03-23T12:15:22.725Z,13.98
2019-03-23T12:17:52.062Z,16.42
2019-03-23T12:20:27.635Z,15.95
2019-03-23T12:22:57.000Z,13.43
2019-03-23T12:25:26.576Z,14.95
2019-03-23T12:28:02.711Z,12.50
2019-03-23T12:30:37.126Z,13.33
2019-03-23T12:33:14.391Z,13.93
2019-03-23T12:35:43.664Z,14.28
2019-03-23T12:38:13.020Z,15.25
2019-03-23T12:40:50.351Z,13.85
2019-03-23T12:43:19.596Z,13.72
2019-03-23T12:45:48.806Z,15.72
2019-03-23T12:48:25.225Z,14.63
2019-03-23T12:50:54.468Z,15.60
2019-03-23T12:53:43.265Z,15.80
2019-03-23T12:56:12.502Z,16.05
2019-03-23T12:58:41.903Z,15.30
2019-03-23T13:01:18.882Z,14.87
2019-03-23T13:03:48.833Z,17.93
2019-03-23T13:06:18.248Z,17.30
2019-03-23T13:08:55.213Z,15.58
2019-03-23T13:11:31.101Z,17.37
2019-03-23T13:13:55.394Z,17.70
2019-03-23T13:16:31.615Z,16.80
2019-03-23T13:19:00.855Z,19.60
2019-03-23T13:21:30.088Z,17.02
2019-03-23T13:24:06.362Z,19.82
2019-03-23T13:26:35.754Z,17.12
2019-03-23T13:29:05.078Z,19.37
2019-03-23T13:31:40.988Z,19.35
2019-03-23T13:34:11.206Z,17.07
2019-03-23T13:36:40.883Z,20.15
2019-03-23T13:39:16.897Z,18.90
2019-03-23T13:41:50.327Z,20.57
2019-03-23T13:44:20.065Z,20.35
2019-03-23T13:46:55.946Z,18.85
2019-03-23T13:49:26.265Z,20.60
2019-03-23T13:51:55.486Z,17.45
2019-03-23T13:54:37.694Z,18.45
2019-03-23T13:57:13.720Z,19.27
2019-03-23T13:59:49.963Z,18.05
2019-03-23T14:02:19.260Z,16.45
2019-03-23T14:04:50.253Z,16.77
2019-03-23T14:07:26.623Z,15.58
2019-03-23T14:09:56.649Z,15.93
2019-03-23T14:12:25.951Z,15.35
2019-03-23T14:15:01.312Z,15.28
2019-03-23T14:17:30.571Z,14.13
2019-03-23T14:20:00.327Z,12.53
2019-03-23T14:22:35.927Z,11.45
2019-03-23T14:25:05.842Z,12.47
2019-03-23T14:27:35.281Z,11.22
2019-03-23T14:30:14.985Z,12.20
2019-03-23T14:32:44.260Z,9.83
2019-03-23T14:35:13.583Z,10.20
2019-03-23T14:37:49.076Z,10.55
2019-03-23T14:40:18.289Z,10.93
2019-03-23T14:42:47.604Z,10.43
2019-03-23T14:45:23.460Z,10.75
2019-03-23T14:47:53.384Z,11.30
2019-03-23T14:50:22.696Z,13.27
2019-03-23T14:52:58.352Z,14.10
2019-03-23T14:55:47.386Z,12.63
2019-03-23T14:58:23.658Z,12.75
2019-03-23T15:00:52.881Z,11.43
2019-03-23T15:03:22.206Z,14.83
2019-03-23T15:05:58.404Z,13.67
2019-03-23T15:08:27.634Z,12.27
2019-03-23T15:10:56.879Z,13.40
2019-03-23T15:13:32.769Z,11.93
2019-03-23T15:16:02.033Z,12.98
2019-03-23T15:18:31.311Z,12.70
2019-03-23T15:21:07.550Z,11.80
2019-03-23T15:23:37.687Z,10.72
2019-03-23T15:26:07.903Z,12.78
2019-03-23T15:28:44.709Z,13.55
2019-03-23T15:31:14.504Z,11.88
2019-03-23T15:33:43.772Z,11.95
2019-03-23T15:36:19.634Z,10.75
2019-03-23T15:38:48.888Z,12.87
2019-03-23T15:41:18.088Z,11.13
2019-03-23T15:43:54.192Z,10.48
2019-03-23T15:46:25.479Z,12.37
2019-03-23T15:48:54.541Z,11.35
2019-03-23T15:51:31.594Z,11.78
2019-03-23T15:54:20.078Z,12.20
2019-03-23T15:57:02.852Z,13.15
2019-03-23T15:59:32.132Z,10.00
2019-03-23T16:02:01.358Z,10.10
2019-03-23T16:04:37.585Z,9.83
2019-03-23T16:07:06.895Z,8.77
2019-03-23T16:09:38.247Z,9.13
2019-03-23T16:12:14.858Z,7.55
2019-03-23T16:14:44.450Z,7.83
2019-03-23T16:17:13.772Z,8.50
2019-03-23T16:19:50.208Z,7.30
2019-03-23T16:22:20.235Z,7.37
2019-03-23T16:24:49.450Z,7.67
2019-03-23T16:27:25.509Z,8.65
2019-03-23T16:29:54.698Z,6.83
2019-03-23T16:32:25.651Z,7.20
2019-03-23T16:35:02.041Z,6.70
2019-03-23T16:37:32.394Z,7.80
2019-03-23T16:40:01.676Z,7.83
2019-03-23T16:42:45.240Z,6.03
2019-03-23T16:45:09.953Z,6.42
2019-03-23T16:47:47.193Z,6.87
2019-03-23T16:50:16.531Z,6.17
2019-03-23T16:52:45.817Z,6.47
2019-03-23T16:55:22.855Z,6.08
2019-03-23T16:58:04.744Z,7.05
2019-03-23T17:00:42.434Z,7.15
2019-03-23T17:03:11.674Z,6.00
2019-03-23T17:05:40.955Z,6.87
2019-03-23T17:08:16.337Z,5.97
2019-03-23T17:10:45.974Z,5.47
2019-03-23T17:13:15.197Z,8.30
2019-03-23T17:15:52.413Z,5.60
2019-03-23T17:18:21.713Z,7.00
2019-03-23T17:20:50.987Z,6.37
2019-03-23T17:23:26.447Z,5.78
2019-03-23T17:25:55.679Z,4.67
2019-03-23T17:28:24.938Z,4.80
2019-03-23T17:31:03.548Z,4.72
2019-03-23T17:33:32.825Z,5.00
2019-03-23T17:36:02.084Z,5.65
2019-03-23T17:38:38.245Z,6.17
2019-03-23T17:41:07.453Z,5.50
2019-03-23T17:43:36.749Z,5.70
2019-03-23T17:46:12.808Z,5.50
2019-03-23T17:48:42.047Z,6.53
2019-03-23T17:51:11.546Z,5.30
2019-03-23T17:53:47.644Z,5.53
2019-03-23T17:56:36.558Z,4.72
2019-03-23T17:59:20.729Z,5.95
2019-03-23T18:01:50.037Z,5.87
2019-03-23T18:04:19.280Z,5.17
2019-03-23T18:06:55.262Z,6.45
2019-03-23T18:09:24.485Z,6.00
2019-03-23T18:11:53.818Z,5.83
2019-03-23T18:14:30.550Z,6.53
2019-03-23T18:16:59.760Z,5.50
2019-03-23T18:19:49.021Z,6.00
2019-03-23T18:22:24.763Z,7.05
2019-03-23T18:25:00.344Z,6.80
2019-03-23T18:27:29.678Z,7.30
2019-03-23T18:29:58.900Z,5.60
2019-03-23T18:32:34.693Z,5.25
2019-03-23T18:35:04.765Z,5.92
2019-03-23T18:37:34.021Z,5.40
2019-03-23T18:40:11.843Z,6.83
2019-03-23T18:42:41.105Z,7.00
2019-03-23T18:45:10.400Z,6.05
2019-03-23T18:47:46.753Z,5.60
2019-03-23T18:50:16.018Z,6.33
2019-03-23T18:52:45.267Z,7.22
2019-03-23T18:55:21.548Z,6.97
2019-03-23T18:57:57.946Z,6.20
2019-03-23T19:00:44.336Z,6.20
2019-03-23T19:03:15.674Z,8.48
2019-03-23T19:05:44.957Z,7.60
2019-03-23T19:08:20.847Z,8.15
2019-03-23T19:10:50.112Z,8.20
2019-03-23T19:13:19.311Z,7.85
2019-03-23T19:15:54.661Z,8.57
2019-03-23T19:18:23.895Z,8.55
2019-03-23T19:20:53.132Z,6.85
2019-03-23T19:23:29.263Z,9.78
2019-03-23T19:25:58.517Z,9.98
2019-03-23T19:28:27.789Z,10.65
2019-03-23T19:31:03.974Z,9.07
2019-03-23T19:33:33.173Z,10.27
2019-03-23T19:36:02.410Z,8.98
2019-03-23T19:38:37.820Z,10.38
2019-03-23T19:41:07.092Z,9.00
2019-03-23T19:43:36.598Z,10.03
2019-03-23T19:46:12.270Z,9.80
2019-03-23T19:48:41.568Z,13.88
2019-03-23T19:51:10.881Z,11.22
2019-03-23T19:53:46.369Z,13.43
2019-03-23T19:56:21.788Z,11.75
2019-03-23T19:59:05.019Z,11.03
2019-03-23T20:01:40.840Z,10.85
2019-03-23T20:04:16.880Z,11.75
2019-03-23T20:06:46.118Z,10.77
2019-03-23T20:09:15.359Z,10.98
2019-03-23T20:11:51.723Z,11.28
2019-03-23T20:14:21.029Z,11.83
2019-03-23T20:16:50.298Z,12.20
2019-03-23T20:19:27.375Z,12.43
2019-03-23T20:21:56.589Z,11.53
2019-03-23T20:24:25.832Z,12.07
2019-03-23T20:27:01.409Z,11.30
2019-03-23T20:29:30.732Z,11.53
2019-03-23T20:32:00.377Z,9.58
2019-03-23T20:34:36.442Z,10.50
2019-03-23T20:37:08.127Z,11.78
2019-03-23T20:39:36.880Z,10.75
2019-03-23T20:42:13.123Z,10.90
2019-03-23T20:44:42.516Z,11.57
2019-03-23T20:47:13.864Z,10.08
2019-03-23T20:49:50.035Z,12.70
2019-03-23T20:52:21.043Z,12.85
2019-03-23T20:54:50.660Z,13.73
2019-03-23T20:57:36.612Z,10.90
2019-03-23T21:00:04.210Z,12.15
2019-03-23T21:02:46.405Z,14.45
2019-03-23T21:05:15.986Z,11.80
2019-03-23T21:07:45.699Z,11.60
2019-03-23T21:10:21.990Z,11.63
2019-03-23T21:12:51.348Z,12.33
2019-03-23T21:15:20.646Z,11.83
2019-03-23T21:17:56.060Z,10.50
2019-03-23T21:20:25.501Z,11.28
2019-03-23T21:22:54.806Z,11.53
2019-03-23T21:25:31.048Z,11.88
2019-03-23T21:28:02.971Z,13.75
2019-03-23T21:30:32.567Z,11.55
2019-03-23T21:33:08.625Z,12.17
2019-03-23T21:35:37.835Z,13.30
2019-03-23T21:38:07.180Z,12.60
2019-03-23T21:40:43.934Z,12.07
2019-03-23T21:43:13.188Z,12.82
2019-03-23T21:45:42.466Z,14.95
2019-03-23T21:48:18.024Z,14.00
2019-03-23T21:50:53.602Z,14.07
2019-03-23T21:53:29.690Z,14.70
2019-03-23T21:55:58.967Z,14.78
2019-03-23T21:58:47.767Z,14.10
2019-03-23T22:01:17.058Z,15.63
2019-03-23T22:03:59.072Z,15.48
2019-03-23T22:06:28.317Z,15.53
2019-03-23T22:08:57.536Z,15.90
2019-03-23T22:11:33.904Z,13.75
2019-03-23T22:14:03.228Z,14.50
2019-03-23T22:16:32.677Z,15.90
2019-03-23T22:19:08.320Z,15.95
2019-03-23T22:21:37.637Z,14.98
2019-03-23T22:24:06.980Z,17.50
2019-03-23T22:26:42.843Z,17.95
2019-03-23T22:29:12.118Z,15.13
2019-03-23T22:31:41.315Z,18.37
2019-03-23T22:34:17.547Z,17.35
2019-03-23T22:36:46.847Z,17.73
2019-03-23T22:39:16.073Z,19.65
2019-03-23T22:41:51.456Z,17.97
2019-03-23T22:44:20.733Z,18.90
2019-03-23T22:46:49.963Z,19.27
2019-03-23T22:49:26.138Z,17.93
2019-03-23T22:51:55.456Z,16.20
2019-03-23T22:54:24.740Z,16.95
2019-03-23T22:57:00.627Z,17.65
2019-03-23T22:59:39.318Z,21.05
2019-03-23T23:02:22.002Z,21.42
2019-03-23T23:04:58.151Z,18.57
2019-03-23T23:07:34.163Z,21.45
2019-03-23T23:10:04.137Z,21.97
2019-03-23T23:12:33.407Z,21.52
2019-03-23T23:15:09.504Z,21.35
2019-03-23T23:17:38.809Z,17.45
2019-03-23T23:20:08.592Z,20.23
2019-03-23T23:22:44.250Z,18.48
2019-03-23T23:25:13.688Z,19.60
2019-03-23T23:27:42.960Z,17.20
2019-03-23T23:30:22.222Z,17.45
2019-03-23T23:32:51.508Z,14.85
2019-03-23T23:35:20.776Z,18.40
2019-03-23T23:37:56.815Z,16.35
2019-03-23T23:40:26.084Z,15.58
2019-03-23T23:42:55.363Z,16.40
2019-03-23T23:45:31.033Z,17.02
2019-03-23T23:48:01.155Z,15.08
2019-03-23T23:50:30.411Z,13.53
2019-03-23T23:53:06.354Z,13.60
2019-03-23T23:55:35.563Z,13.50
2019-03-23T23:58:04.905Z,14.07
